Latest Weather Observations for Minnipa RS

IDS60801

Issued at 11:31 am CST Monday 25 July 2016 (issued every 30 minutes, with the page automatically refreshed every 10 minutes)

About weather observations | Map of weather stations | Latest weather observations for SA | Other Formats
Station Details ID: 018195 Name: MINNIPA PIRSA Lat: -32.84 Lon: 135.15 Height: 165.0 m
Data from the previous 72 hours. | See also: Recent months at Minnipa RS
Date/Time
CST
Temp
°C
App
Temp
°C
Dew
Point
°C
Rel
Hum
%
Delta-T
°C
Wind Press
QNH
hPa
Press
MSL
hPa
Rain since
9am
mm
Dir  Spd
km/h
Gust
km/h
Spd
kts
Gust
kts
25/11:30am 11.9 7.1 10.3 90 0.8 WNW 26 39 14 21 1020.2 - 0.8
25/11:00am 10.9 6.5 10.3 96 0.3 WNW 24 37 13 20 1020.8 - 0.8
25/10:30am 10.3 5.7 9.7 96 0.3 NW 24 30 13 16 1020.6 - 0.2
25/10:00am 9.7 4.6 9.1 96 0.3 NW 26 39 14 21 1020.5 - 0.2
25/09:30am 9.0 4.1 8.4 96 0.3 NW 24 32 13 17 1020.4 - 0.0
25/09:00am 8.6 4.0 8.0 96 0.3 NW 22 32 12 17 1020.0 1020.1 0.6
25/08:30am 8.0 3.6 7.4 96 0.3 NNW 20 28 11 15 1019.9 - 0.6
25/08:00am 7.2 2.6 6.5 95 0.3 NNW 20 26 11 14 1019.8 - 0.6
25/07:30am 6.9 2.8 6.2 95 0.3 NNW 17 22 9 12 1019.8 - 0.6
25/07:00am 6.6 2.4 5.9 95 0.3 NNW 17 22 9 12 1019.6 - 0.6
25/06:30am 5.8 1.4 4.9 94 0.4 NNW 17 20 9 11 1019.4 - 0.6
25/06:00am 5.9 1.9 5.0 94 0.4 NNW 15 20 8 11 1019.3 1019.4 0.6
25/05:30am 6.7 2.5 5.8 94 0.4 NNW 17 20 9 11 1019.3 - 0.6
25/05:00am 7.0 2.9 6.1 94 0.4 NNW 17 24 9 13 1019.4 - 0.4
25/04:30am 7.3 3.9 6.1 92 0.5 NW 13 17 7 9 1019.6 - 0.4
25/04:00am 8.0 4.7 6.6 91 0.7 W 13 17 7 9 1019.9 - 0.4
25/03:30am 7.9 4.3 6.7 92 0.6 WNW 15 24 8 13 1019.8 - 0.4
25/03:00am 7.4 2.4 6.5 94 0.4 W 22 28 12 15 1020.0 1020.1 0.4
25/02:30am 6.4 2.9 5.4 93 0.4 NNW 13 17 7 9 1019.9 - 0.4
25/02:00am 6.5 3.0 5.3 92 0.5 NNW 13 17 7 9 1019.9 - 0.4
25/01:30am 7.5 3.8 6.3 92 0.6 NW 15 17 8 9 1020.1 - 0.4
25/01:00am 6.8 3.7 5.4 91 0.6 NW 11 13 6 7 1020.2 - 0.4
25/12:30am 7.8 4.9 6.3 90 0.7 W 11 17 6 9 1020.2 - 0.4
25/12:00am 8.2 4.1 6.2 87 0.9 W 17 20 9 11 1020.2 1020.3 0.4
 
Date/Time
CST
Temp
°C
App
Temp
°C
Dew
Point
°C
Rel
Hum
%
Delta-T
°C
Wind Press
QNH
hPa
Press
MSL
hPa
Rain since
9am
mm
Dir  Spd
km/h
Gust
km/h
Spd
kts
Gust
kts
24/11:30pm 7.6 3.9 6.1 90 0.7 W 15 22 8 12 1020.3 - 0.4
24/11:00pm 7.4 4.4 5.9 90 0.7 W 11 15 6 8 1020.3 - 0.2
24/10:30pm 7.7 4.0 6.2 90 0.7 W 15 24 8 13 1020.3 - 0.2
24/10:00pm 7.4 3.2 5.7 89 0.8 WNW 17 20 9 11 1020.0 - 0.2
24/09:30pm 7.6 3.8 5.9 89 0.8 WNW 15 19 8 10 1019.8 - 0.2
24/09:00pm 8.0 3.9 6.3 89 0.8 WNW 17 20 9 11 1019.8 1019.9 0.2
24/08:30pm 7.7 3.9 5.8 88 0.9 WNW 15 19 8 10 1019.5 - 0.2
24/08:00pm 8.1 3.9 5.7 85 1.1 W 17 22 9 12 1019.4 - 0.2
24/07:30pm 8.4 3.9 5.9 84 1.1 WNW 19 26 10 14 1019.2 - 0.2
24/07:00pm 8.1 4.4 6.1 87 0.9 WNW 15 19 8 10 1018.5 - 0.2
24/06:30pm 8.4 4.4 6.5 88 0.9 WNW 17 22 9 12 1018.1 - 0.2
24/06:00pm 8.9 3.8 6.0 82 1.3 W 22 33 12 18 1017.8 1017.9 0.2
24/05:30pm 9.3 3.3 5.5 77 1.7 W 26 35 14 19 1017.3 - 0.2
24/05:00pm 9.4 3.2 6.3 81 1.4 W 28 37 15 20 1017.1 - 0.2
24/04:30pm 10.8 3.3 4.7 66 2.8 W 33 57 18 31 1016.7 - 0.2
24/04:28pm 10.9 3.5 3.9 62 3.1 W 32 50 17 27 1016.6 - 0.2
24/04:00pm 11.4 4.2 4.8 64 3.0 W 32 46 17 25 1016.2 - 0.2
24/03:30pm 10.9 2.6 4.1 63 3.1 W 37 57 20 31 1015.9 - 0.2
24/03:19pm 10.9 3.7 5.7 70 2.4 W 33 52 18 28 1015.9 - 0.2
24/03:00pm 11.4 5.2 6.3 71 2.4 W 28 43 15 23 1015.8 1015.9 0.0
24/02:34pm 11.6 2.7 5.0 64 3.0 W 41 65 22 35 1015.4 - 0.0
24/02:30pm 12.8 3.8 4.8 58 3.7 W 41 57 22 31 1015.4 - 0.0
24/02:06pm 12.4 5.5 4.4 58 3.7 W 30 50 16 27 1015.2 - 0.0
24/02:00pm 12.0 5.3 5.4 64 3.1 W 30 44 16 24 1015.3 - 0.0
24/01:40pm 10.4 2.8 5.6 72 2.2 WSW 35 54 19 29 1015.3 - 0.0
24/01:30pm 12.1 3.8 4.1 58 3.6 W 37 54 20 29 1015.2 - 0.0
24/01:01pm 13.0 4.5 3.4 52 4.3 W 37 56 20 30 1015.0 - 0.0
24/01:00pm 13.0 4.7 4.4 56 4.0 W 37 52 20 28 1015.1 - 0.0
24/12:35pm 12.5 4.0 2.9 52 4.3 W 37 59 20 32 1015.0 - 0.0
24/12:30pm 13.0 4.8 4.7 57 3.8 W 37 52 20 28 1015.1 - 0.0
24/12:06pm 12.5 4.8 3.2 53 4.2 W 33 52 18 28 1015.1 - 0.0
24/12:00pm 12.3 4.9 4.8 60 3.5 WSW 33 48 18 26 1015.1 1015.2 0.0
24/11:30am 12.0 4.9 6.5 69 2.6 W 33 52 18 28 1015.2 - 0.0
24/11:06am 11.1 3.3 4.8 65 2.9 W 35 59 19 32 1015.2 - 0.0
24/11:00am 11.2 3.9 5.5 68 2.7 W 33 46 18 25 1015.1 - 0.0
24/10:30am 10.1 3.5 5.9 75 2.0 WSW 30 48 16 26 1015.0 - 0.0
24/10:08am 10.2 2.9 5.4 72 2.2 W 33 59 18 32 1014.7 - 0.0
24/10:00am 10.4 3.2 4.8 68 2.5 W 32 44 17 24 1014.5 - 0.0
24/09:30am 8.9 4.4 7.0 88 0.9 WNW 20 32 11 17 1014.2 - 0.0
24/09:00am 7.6 2.6 6.4 92 0.6 NW 22 28 12 15 1013.6 1013.7 3.4
24/08:30am 6.6 1.4 5.4 92 0.5 NW 22 32 12 17 1013.2 - 3.4
24/08:00am 6.3 0.3 5.1 92 0.5 NW 26 39 14 21 1013.1 - 3.4
24/07:30am 6.6 -0.2 4.9 89 0.7 WNW 30 41 16 22 1013.2 - 2.4
24/07:00am 6.6 0.4 4.1 84 1.1 NW 26 32 14 17 1012.6 - 1.2
24/06:30am 7.5 0.3 3.0 73 1.9 NNW 30 41 16 22 1011.5 - 0.4
24/06:00am 7.6 0.1 3.6 76 1.7 NW 32 43 17 23 1011.6 1011.7 0.4
24/05:30am 7.8 0.0 3.1 72 2.0 NW 33 44 18 24 1011.9 - 0.4
24/05:00am 7.6 0.1 3.5 75 1.8 NNW 32 41 17 22 1011.8 - 0.4
24/04:30am 7.9 1.2 3.4 73 1.9 NW 28 33 15 18 1012.0 - 0.4
24/04:00am 8.2 1.9 3.9 74 1.9 NW 26 33 14 18 1012.4 - 0.4
24/03:30am 7.9 1.7 4.5 79 1.5 NW 26 33 14 18 1012.6 - 0.4
24/03:00am 8.1 2.6 5.7 85 1.1 NNW 24 30 13 16 1013.1 1013.2 0.4
24/02:30am 8.1 2.7 6.2 88 0.9 NW 24 30 13 16 1013.8 - 0.4
24/02:00am 7.4 2.6 5.7 89 0.8 NNW 20 24 11 13 1013.7 - 0.4
24/01:30am 7.6 3.0 5.7 88 0.9 NNW 19 24 10 13 1013.8 - 0.4
24/01:00am 8.3 4.2 6.4 88 0.9 NNW 17 24 9 13 1014.3 - 0.4
24/12:30am 8.1 4.1 6.7 91 0.7 NNW 17 20 9 11 1015.0 - 0.4
24/12:00am 8.3 4.0 6.9 91 0.7 NNW 19 24 10 13 1015.5 1015.6 0.4
 
Date/Time
CST
Temp
°C
App
Temp
°C
Dew
Point
°C
Rel
Hum
%
Delta-T
°C
Wind Press
QNH
hPa
Press
MSL
hPa
Rain since
9am
mm
Dir  Spd
km/h
Gust
km/h
Spd
kts
Gust
kts
23/11:30pm 8.3 4.0 6.8 90 0.7 NNW 19 24 10 13 1015.8 - 0.2
23/11:00pm 7.6 3.7 5.2 85 1.1 NW 15 20 8 11 1016.2 - 0.2
23/10:30pm 7.5 3.4 4.5 81 1.3 NNW 15 20 8 11 1016.4 - 0.2
23/10:00pm 7.5 4.1 3.9 78 1.6 N 11 13 6 7 1016.5 - 0.2
23/09:30pm 7.5 4.5 4.1 79 1.5 N 9 11 5 6 1016.5 - 0.2
23/09:00pm 8.0 5.0 4.2 77 1.7 NNW 9 11 5 6 1016.4 1016.6 0.2
23/08:30pm 7.4 4.4 4.0 79 1.5 N 9 11 5 6 1016.7 - 0.2
23/08:00pm 7.1 3.5 3.2 76 1.7 NW 11 11 6 6 1016.8 - 0.2
23/07:30pm 6.9 4.1 3.3 78 1.5 NNW 7 9 4 5 1016.7 - 0.2
23/07:00pm 8.1 5.4 3.6 73 2.0 NW 7 9 4 5 1016.9 - 0.2
23/06:30pm 8.6 5.2 3.8 72 2.1 WNW 11 13 6 7 1016.9 - 0.2
23/06:00pm 10.9 6.6 3.5 60 3.3 WNW 15 22 8 12 1016.8 1017.0 0.2
23/05:30pm 11.6 8.5 5.5 66 2.8 WNW 11 13 6 7 1016.6 - 0.2
23/05:00pm 11.9 7.3 3.9 58 3.6 WNW 17 22 9 12 1016.6 - 0.2
23/04:30pm 13.3 9.6 4.7 56 4.0 W 13 19 7 10 1016.5 - 0.2
23/04:00pm 12.9 9.2 4.3 56 3.9 WNW 13 19 7 10 1016.4 - 0.2
23/03:30pm 12.8 9.1 6.2 64 3.2 W 15 20 8 11 1016.6 - 0.2
23/03:00pm 13.0 9.3 4.4 56 4.0 W 13 17 7 9 1016.3 1016.5 0.2
23/02:30pm 13.6 9.3 3.4 50 4.6 W 15 19 8 10 1016.5 - 0.2
23/02:00pm 13.1 8.8 3.5 52 4.3 W 15 20 8 11 1016.6 - 0.2
23/01:30pm 13.7 8.9 2.6 47 4.9 WSW 17 28 9 15 1017.2 - 0.2
23/01:00pm 13.3 8.2 4.2 54 4.2 SW 20 26 11 14 1017.5 - 0.2
23/12:30pm 13.8 9.1 5.2 56 4.1 SW 19 28 10 15 1018.0 - 0.2
23/12:00pm 12.2 7.1 2.9 53 4.1 WSW 19 28 10 15 1018.2 1018.3 0.2
23/11:30am 11.8 7.3 6.3 69 2.6 SW 19 24 10 13 1018.4 - 0.2
23/11:00am 11.9 8.3 6.6 70 2.5 WSW 15 22 8 12 1018.7 - 0.2
23/10:30am 11.0 8.1 6.7 75 2.1 W 11 13 6 7 1018.8 - 0.2
23/10:00am 9.6 6.8 7.0 84 1.2 WSW 11 15 6 8 1018.6 - 0.2
23/09:30am 10.1 7.8 7.3 83 1.3 W 9 13 5 7 1018.3 - 0.0
23/09:00am 8.4 5.9 6.7 89 0.8 NW 9 11 5 6 1018.0 1018.1 2.6
23/08:30am 7.9 4.9 6.2 89 0.8 WSW 11 19 6 10 1017.7 - 2.6
23/08:00am 6.8 4.0 5.3 90 0.7 WSW 9 15 5 8 1017.3 - 2.6
23/07:30am 6.1 3.6 4.6 90 0.7 WSW 7 9 4 5 1016.8 - 2.6
23/07:00am 6.4 3.5 4.6 88 0.8 WSW 9 13 5 7 1016.6 - 2.6
23/06:30am 7.0 3.5 5.5 90 0.7 W 13 24 7 13 1016.4 - 2.6
23/06:00am 6.7 3.8 4.7 87 0.9 W 9 13 5 7 1016.0 1016.2 2.6
23/05:30am 7.4 4.3 5.4 87 0.9 W 11 15 6 8 1015.6 - 2.6
23/05:00am 7.9 3.7 5.9 87 0.9 SW 17 26 9 14 1015.2 - 2.6
23/04:30am 7.2 3.6 4.9 85 1.0 WNW 13 17 7 9 1014.9 - 2.6
23/04:00am 7.3 3.7 4.8 84 1.1 WNW 13 17 7 9 1014.7 - 2.6
23/03:30am 7.9 3.6 5.2 83 1.2 W 17 22 9 12 1014.5 - 2.6
23/03:00am 7.9 3.6 5.4 84 1.1 W 17 22 9 12 1014.3 1014.4 2.6
23/02:30am 8.1 3.9 5.7 85 1.1 W 17 24 9 13 1014.3 - 2.6
23/02:00am 8.4 3.7 5.0 79 1.5 W 19 24 10 13 1014.2 - 2.6
23/01:30am 8.2 3.3 5.3 82 1.3 W 20 26 11 14 1014.1 - 2.6
23/01:00am 8.3 3.5 5.6 83 1.2 W 20 28 11 15 1014.2 - 2.6
23/12:30am 8.0 3.9 6.0 87 0.9 W 17 24 9 13 1014.1 - 2.6
23/12:00am 8.4 3.8 5.7 83 1.2 W 19 24 10 13 1013.9 1014.0 2.6
 
Date/Time
CST
Temp
°C
App
Temp
°C
Dew
Point
°C
Rel
Hum
%
Delta-T
°C
Wind Press
QNH
hPa
Press
MSL
hPa
Rain since
9am
mm
Dir  Spd
km/h
Gust
km/h
Spd
kts
Gust
kts
22/11:30pm 8.6 3.1 6.1 84 1.2 W 24 32 13 17 1013.6 - 2.6
22/11:00pm 8.7 3.2 6.0 83 1.2 W 24 35 13 19 1013.6 - 2.6
22/10:30pm 8.7 3.1 5.6 81 1.4 W 24 35 13 19 1013.5 - 2.6
22/10:00pm 8.7 3.1 5.4 80 1.5 W 24 35 13 19 1013.3 - 2.6
22/09:30pm 8.9 3.9 4.7 75 1.9 W 20 32 11 17 1013.0 - 2.6
22/09:03pm 9.6 2.6 4.2 69 2.4 W 30 48 16 26 1012.6 - 2.6
22/09:00pm 9.7 2.4 4.3 69 2.4 W 32 48 17 26 1012.6 1012.7 2.6
22/08:55pm 9.9 2.5 4.1 67 2.6 W 32 48 17 26 1012.6 - 2.6
22/08:30pm 9.1 4.0 3.9 70 2.3 W 20 30 11 16 1012.7 - 2.6
22/08:00pm 8.8 3.9 4.2 73 2.0 W 19 28 10 15 1012.0 - 2.6
22/07:30pm 9.8 2.8 4.0 67 2.6 W 30 43 16 23 1011.6 - 2.6
22/07:10pm 9.8 3.3 4.6 70 2.3 W 28 48 15 26 1011.2 - 2.6
22/07:00pm 9.5 3.5 5.3 75 1.9 W 26 41 14 22 1011.0 - 2.6
22/06:30pm 9.2 3.7 5.9 80 1.5 W 24 33 13 18 1010.6 - 2.6
22/06:00pm 9.3 3.9 6.4 82 1.4 W 24 33 13 18 1010.2 1010.3 2.6
22/05:30pm 9.5 2.0 6.4 81 1.5 W 35 48 19 26 1009.8 - 2.6
22/05:14pm 9.9 2.6 7.0 82 1.4 W 35 56 19 30 1009.6 - 2.6
22/05:00pm 10.5 3.8 7.2 80 1.6 W 32 44 17 24 1009.3 - 2.4
22/04:30pm 9.9 1.6 7.8 87 1.0 W 41 61 22 33 1009.0 - 2.4
22/04:28pm 9.9 1.2 7.8 87 1.0 W 43 61 23 33 1009.1 - 2.4
22/04:12pm 11.0 1.7 5.7 70 2.5 WSW 44 65 24 35 1008.5 - 0.8
22/04:00pm 12.5 4.8 7.0 69 2.7 W 37 59 20 32 1008.2 - 0.8
22/03:36pm 11.7 4.2 8.0 78 1.8 W 37 56 20 30 1007.9 - 0.8
22/03:30pm 12.0 4.6 8.5 79 1.7 WNW 37 54 20 29 1007.9 - 0.8
22/03:00pm 11.0 3.3 8.8 86 1.1 WNW 39 59 21 32 1007.7 1007.8 0.6
22/02:30pm 10.7 4.1 8.6 87 1.0 WNW 33 48 18 26 1007.5 - 0.4
22/02:00pm 14.7 3.8 5.5 54 4.4 WNW 52 74 28 40 1006.7 - 0.0
22/01:30pm 14.9 4.0 5.7 54 4.4 WNW 52 72 28 39 1006.6 - 0.0
22/01:00pm 15.5 5.0 5.4 51 4.8 WNW 50 72 27 39 1006.8 - 0.0
22/12:31pm 15.8 6.7 6.8 55 4.5 WNW 44 63 24 34 1006.7 - 0.0
22/12:30pm 15.7 6.2 6.7 55 4.4 WNW 46 63 25 34 1006.7 - 0.0
22/12:00pm 14.9 5.8 5.7 54 4.4 W 43 65 23 35 1006.8 1006.9 0.0

Other Formats:

Comma delimited format used in spreadsheet applications
http://www.bom.gov.au/fwo/IDS60801/IDS60801.95662.axf

JavaScript Object Notation format (JSON) in row-major order
http://www.bom.gov.au/fwo/IDS60801/IDS60801.95662.json